createdAt,value
2019-02-12T00:00:16.184Z,11.60
2019-02-12T00:01:16.178Z,12.70
2019-02-12T00:02:16.141Z,12.30
2019-02-12T00:03:16.130Z,10.60
2019-02-12T00:04:16.125Z,12.10
2019-02-12T00:05:16.130Z,9.40
2019-02-12T00:06:16.120Z,9.60
2019-02-12T00:07:16.090Z,8.60
2019-02-12T00:08:16.071Z,8.40
2019-02-12T00:09:16.098Z,7.30
2019-02-12T00:10:16.084Z,7.90
2019-02-12T00:11:16.047Z,7.30
2019-02-12T00:12:16.047Z,7.60
2019-02-12T00:13:16.049Z,7.90
2019-02-12T00:14:16.006Z,8.40
2019-02-12T00:15:16.019Z,7.90
2019-02-12T00:16:15.990Z,7.70
2019-02-12T00:17:16.018Z,7.20
2019-02-12T00:18:16.008Z,7.80
2019-02-12T00:19:16.034Z,8.10
2019-02-12T00:20:15.940Z,7.70
2019-02-12T00:21:15.927Z,7.30
2019-02-12T00:22:15.979Z,7.40
2019-02-12T00:23:15.953Z,7.90
2019-02-12T00:24:15.902Z,7.90
2019-02-12T00:25:15.881Z,7.60
2019-02-12T00:26:15.871Z,8.30
2019-02-12T00:27:15.860Z,7.50
2019-02-12T00:28:15.952Z,7.40
2019-02-12T00:29:15.846Z,7.10
2019-02-12T00:30:15.843Z,7.50
2019-02-12T00:31:15.841Z,8.40
2019-02-12T00:32:15.807Z,7.70
2019-02-12T00:33:15.817Z,8.10
2019-02-12T00:34:15.815Z,9.20
2019-02-12T00:35:15.831Z,8.30
2019-02-12T00:36:15.767Z,8.30
2019-02-12T00:37:15.772Z,8.90
2019-02-12T00:38:15.751Z,8.00
2019-02-12T00:39:15.800Z,8.70
2019-02-12T00:40:15.721Z,9.60
2019-02-12T00:41:15.730Z,8.40
2019-02-12T00:42:15.701Z,8.80
2019-02-12T00:43:15.733Z,9.40
2019-02-12T00:44:15.671Z,9.10
2019-02-12T00:45:15.662Z,8.40
2019-02-12T00:46:15.675Z,9.30
2019-02-12T00:47:15.644Z,10.00
2019-02-12T00:48:15.635Z,9.60
2019-02-12T00:49:15.657Z,9.40
2019-02-12T00:50:15.641Z,8.70
2019-02-12T00:51:17.917Z,8.60
2019-02-12T00:52:15.585Z,8.40
2019-02-12T00:53:15.574Z,8.60
2019-02-12T00:54:15.694Z,9.70
2019-02-12T00:55:15.555Z,8.60
2019-02-12T00:56:15.561Z,8.30
2019-02-12T00:57:15.549Z,8.40
2019-02-12T00:58:15.519Z,7.90
2019-02-12T00:59:15.536Z,8.40
2019-02-12T01:00:15.500Z,7.90
2019-02-12T01:01:15.489Z,7.60
2019-02-12T01:02:15.520Z,8.30
2019-02-12T01:03:15.467Z,8.20
2019-02-12T01:04:15.457Z,8.00
2019-02-12T01:05:15.438Z,7.50
2019-02-12T01:06:15.438Z,8.50
2019-02-12T01:07:15.438Z,7.30
2019-02-12T01:08:15.406Z,8.10
2019-02-12T01:09:15.425Z,8.40
2019-02-12T01:10:15.414Z,7.80
2019-02-12T01:11:15.371Z,7.60
2019-02-12T01:12:15.364Z,8.00
2019-02-12T01:13:15.356Z,7.50
2019-02-12T01:14:15.345Z,8.10
2019-02-12T01:15:15.390Z,8.80
2019-02-12T01:16:15.317Z,8.50
2019-02-12T01:17:15.305Z,8.70
2019-02-12T01:18:15.297Z,9.20
2019-02-12T01:19:15.310Z,9.20
2019-02-12T01:20:15.277Z,8.60
2019-02-12T01:21:15.260Z,8.50
2019-02-12T01:22:15.246Z,9.20
2019-02-12T01:23:15.273Z,9.10
2019-02-12T01:24:15.230Z,8.80
2019-02-12T01:25:15.217Z,8.90
2019-02-12T01:26:15.221Z,8.70
2019-02-12T01:27:15.191Z,8.30
2019-02-12T01:28:15.205Z,8.50
2019-02-12T01:29:15.219Z,8.20
2019-02-12T01:30:16.747Z,8.30
2019-02-12T01:31:15.169Z,8.10
2019-02-12T01:32:15.142Z,8.80
2019-02-12T01:33:15.168Z,8.20
2019-02-12T01:34:15.114Z,8.50
2019-02-12T01:35:15.104Z,8.70
2019-02-12T01:36:15.127Z,9.00
2019-02-12T01:37:15.084Z,9.80
2019-02-12T01:38:15.093Z,8.90
2019-02-12T01:39:15.063Z,7.90
2019-02-12T01:40:15.099Z,8.10
2019-02-12T01:41:15.034Z,7.70
2019-02-12T01:42:15.027Z,8.70
2019-02-12T01:43:15.031Z,8.40
2019-02-12T01:44:15.014Z,7.30
2019-02-12T01:45:15.017Z,8.50
2019-02-12T01:46:14.984Z,7.80
2019-02-12T01:47:14.997Z,8.00
2019-02-12T01:48:14.956Z,8.40
2019-02-12T01:49:14.978Z,8.20
2019-02-12T01:50:14.944Z,8.40
2019-02-12T01:51:14.950Z,8.30
2019-02-12T01:52:14.921Z,6.90
2019-02-12T01:53:14.933Z,8.40
2019-02-12T01:54:14.892Z,8.00
2019-02-12T01:55:14.884Z,7.60
2019-02-12T01:56:14.899Z,7.60
2019-02-12T01:57:14.857Z,7.20
2019-02-12T01:58:14.847Z,8.30
2019-02-12T01:59:14.855Z,7.40
2019-02-12T02:00:14.824Z,7.00
2019-02-12T02:01:14.863Z,7.30
2019-02-12T02:02:14.807Z,7.50
2019-02-12T02:03:14.803Z,7.40
2019-02-12T02:04:14.803Z,8.00
2019-02-12T02:05:14.779Z,7.40
2019-02-12T02:06:14.813Z,8.20
2019-02-12T02:07:14.751Z,7.70
2019-02-12T02:08:14.740Z,7.70
2019-02-12T02:09:14.755Z,8.00
2019-02-12T02:10:14.717Z,7.70
2019-02-12T02:11:14.702Z,8.20
2019-02-12T02:12:14.703Z,8.40
2019-02-12T02:13:14.705Z,8.90
2019-02-12T02:14:14.711Z,8.40
2019-02-12T02:15:14.676Z,9.30
2019-02-12T02:16:14.665Z,9.40
2019-02-12T02:17:14.634Z,10.10
2019-02-12T02:18:14.625Z,8.80
2019-02-12T02:19:14.648Z,10.10
2019-02-12T02:20:14.608Z,9.80
2019-02-12T02:21:14.596Z,9.70
2019-02-12T02:22:14.581Z,8.70
2019-02-12T02:23:14.568Z,9.40
2019-02-12T02:24:14.580Z,10.70
2019-02-12T02:25:14.575Z,10.00
2019-02-12T02:26:14.538Z,10.70
2019-02-12T02:27:14.529Z,9.70
2019-02-12T02:28:14.521Z,10.50
2019-02-12T02:29:14.541Z,10.80
2019-02-12T02:30:14.538Z,9.80
2019-02-12T02:31:14.512Z,10.10
2019-02-12T02:32:14.470Z,11.00
2019-02-12T02:33:14.468Z,11.10
2019-02-12T02:34:14.462Z,11.10
2019-02-12T02:35:14.451Z,11.60
2019-02-12T02:36:14.467Z,10.80
2019-02-12T02:37:14.431Z,11.60
2019-02-12T02:38:14.415Z,11.90
2019-02-12T02:39:14.408Z,11.50
2019-02-12T02:40:14.393Z,12.50
2019-02-12T02:41:14.391Z,12.60
2019-02-12T02:42:14.356Z,11.80
2019-02-12T02:43:14.375Z,12.70
2019-02-12T02:44:14.365Z,12.50
2019-02-12T02:45:14.326Z,12.40
2019-02-12T02:46:14.313Z,12.00
2019-02-12T02:47:14.335Z,11.60
2019-02-12T02:48:14.289Z,12.00
2019-02-12T02:49:14.277Z,11.50
2019-02-12T02:50:14.300Z,12.00
2019-02-12T02:51:14.288Z,13.10
2019-02-12T02:52:14.272Z,12.90
2019-02-12T02:53:14.315Z,12.70
2019-02-12T02:54:14.222Z,12.60
2019-02-12T02:55:14.213Z,12.50
2019-02-12T02:56:14.224Z,12.70
2019-02-12T02:57:14.271Z,11.90
2019-02-12T02:58:14.189Z,13.00
2019-02-12T02:59:14.187Z,11.90
2019-02-12T03:00:14.156Z,13.00
2019-02-12T03:01:14.152Z,13.00
2019-02-12T03:02:14.160Z,13.90
2019-02-12T03:03:14.130Z,13.40
2019-02-12T03:04:14.157Z,13.30
2019-02-12T03:05:14.105Z,12.70
2019-02-12T03:06:14.106Z,12.90
2019-02-12T03:07:14.078Z,13.40
2019-02-12T03:08:14.072Z,13.00
2019-02-12T03:09:14.084Z,13.70
2019-02-12T03:10:14.050Z,12.10
2019-02-12T03:11:14.038Z,12.90
2019-02-12T03:12:14.040Z,13.40
2019-02-12T03:13:14.034Z,13.00
2019-02-12T03:14:14.113Z,13.00
2019-02-12T03:15:13.992Z,14.30
2019-02-12T03:16:13.985Z,14.30
2019-02-12T03:17:13.991Z,13.70
2019-02-12T03:18:13.965Z,13.10
2019-02-12T03:19:14.005Z,13.70
2019-02-12T03:20:13.978Z,14.30
2019-02-12T03:21:13.964Z,15.10
2019-02-12T03:22:13.917Z,14.50
2019-02-12T03:23:13.913Z,14.40
2019-02-12T03:24:13.895Z,14.20
2019-02-12T03:25:13.921Z,14.20
2019-02-12T03:26:13.894Z,14.70
2019-02-12T03:27:13.910Z,14.50
2019-02-12T03:28:13.872Z,14.90
2019-02-12T03:29:13.854Z,14.30
2019-02-12T03:30:13.840Z,14.90
2019-02-12T03:31:13.843Z,15.10
2019-02-12T03:32:13.807Z,15.70
2019-02-12T03:33:13.798Z,14.90
2019-02-12T03:34:13.784Z,15.40
2019-02-12T03:35:13.823Z,14.90
2019-02-12T03:36:13.798Z,15.00
2019-02-12T03:37:13.769Z,15.80
2019-02-12T03:38:13.733Z,15.90
2019-02-12T03:39:13.725Z,15.40
2019-02-12T03:40:13.743Z,15.70
2019-02-12T03:41:13.731Z,15.00
2019-02-12T03:42:13.717Z,14.70
2019-02-12T03:43:13.684Z,14.90
2019-02-12T03:44:13.670Z,14.80
2019-02-12T03:45:13.730Z,16.60
2019-02-12T03:46:13.649Z,15.60
2019-02-12T03:47:13.714Z,14.00
2019-02-12T03:48:13.635Z,15.70
2019-02-12T03:49:13.622Z,15.80
2019-02-12T03:50:13.598Z,13.20
2019-02-12T03:51:13.592Z,13.70
2019-02-12T03:52:13.626Z,14.30
2019-02-12T03:53:13.567Z,14.60
2019-02-12T03:54:13.603Z,15.20
2019-02-12T03:55:13.580Z,15.90
2019-02-12T03:56:13.532Z,15.30
2019-02-12T03:57:13.552Z,16.10
2019-02-12T03:58:13.527Z,15.10
2019-02-12T03:59:13.628Z,14.90
2019-02-12T04:00:13.499Z,16.10
2019-02-12T04:01:13.493Z,15.50
2019-02-12T04:02:13.466Z,17.40
2019-02-12T04:03:13.496Z,17.50
2019-02-12T04:04:13.485Z,18.30
2019-02-12T04:05:13.450Z,17.20
2019-02-12T04:06:13.430Z,18.10
2019-02-12T04:07:13.428Z,18.00
2019-02-12T04:08:13.421Z,17.90
2019-02-12T04:09:13.433Z,17.20
2019-02-12T04:10:13.378Z,15.80
2019-02-12T04:11:13.374Z,15.80
2019-02-12T04:12:13.364Z,15.20
2019-02-12T04:13:13.363Z,17.70
2019-02-12T04:14:13.425Z,17.00
2019-02-12T04:15:13.322Z,17.70
2019-02-12T04:16:13.332Z,17.30
2019-02-12T04:17:13.304Z,19.00
2019-02-12T04:18:13.298Z,17.00
2019-02-12T04:19:13.307Z,16.60
2019-02-12T04:20:13.273Z,15.20
2019-02-12T04:21:13.263Z,15.40
2019-02-12T04:22:21.963Z,16.80
2019-02-12T04:23:14.236Z,16.80
2019-02-12T04:24:13.297Z,16.70
2019-02-12T04:25:13.219Z,16.90
2019-02-12T04:26:13.207Z,17.80
2019-02-12T04:27:13.272Z,16.90
2019-02-12T04:28:13.179Z,18.90
2019-02-12T04:29:13.168Z,18.70
2019-02-12T04:30:13.164Z,20.40
2019-02-12T04:31:13.169Z,17.20
2019-02-12T04:32:13.176Z,19.60
2019-02-12T04:33:13.122Z,18.30
2019-02-12T04:34:13.153Z,17.90
2019-02-12T04:35:13.158Z,18.40
2019-02-12T04:36:13.093Z,18.30
2019-02-12T04:37:13.090Z,19.50
2019-02-12T04:38:13.083Z,21.10
2019-02-12T04:39:13.089Z,21.00
2019-02-12T04:40:13.119Z,20.30
2019-02-12T04:41:13.037Z,20.70
2019-02-12T04:42:13.030Z,20.90
2019-02-12T04:43:13.024Z,19.80
2019-02-12T04:44:13.032Z,19.90
2019-02-12T04:45:13.123Z,21.50
2019-02-12T04:46:12.974Z,21.10
2019-02-12T04:47:12.964Z,22.00
2019-02-12T04:48:12.958Z,20.20
2019-02-12T04:49:13.051Z,19.40
2019-02-12T04:50:12.960Z,18.00
2019-02-12T04:51:12.928Z,19.50
2019-02-12T04:52:12.908Z,18.50
2019-02-12T04:53:12.910Z,18.70
2019-02-12T04:54:12.889Z,19.40
2019-02-12T04:55:12.926Z,18.70
2019-02-12T04:56:12.908Z,18.70
2019-02-12T04:57:12.873Z,18.80
2019-02-12T04:58:12.851Z,19.50
2019-02-12T04:59:12.834Z,20.50
2019-02-12T05:00:12.825Z,21.60
2019-02-12T05:01:12.866Z,21.30
2019-02-12T05:02:12.849Z,23.40
2019-02-12T05:03:12.800Z,22.30
2019-02-12T05:04:12.805Z,22.80
2019-02-12T05:05:12.767Z,21.10
2019-02-12T05:06:12.813Z,20.80
2019-02-12T05:07:12.745Z,20.10
2019-02-12T05:08:12.736Z,18.60
2019-02-12T05:09:12.763Z,20.60
2019-02-12T05:10:12.710Z,19.80
2019-02-12T05:11:12.735Z,18.90
2019-02-12T05:12:12.687Z,19.00
2019-02-12T05:13:12.681Z,19.40
2019-02-12T05:14:12.698Z,19.30
2019-02-12T05:15:12.715Z,20.40
2019-02-12T05:16:12.649Z,19.90
2019-02-12T05:17:12.655Z,20.00
2019-02-12T05:18:12.621Z,19.30
2019-02-12T05:19:12.609Z,20.90
2019-02-12T05:20:12.685Z,21.30
2019-02-12T05:21:12.598Z,22.50
2019-02-12T05:22:12.578Z,22.80
2019-02-12T05:23:12.604Z,23.20
2019-02-12T05:24:12.557Z,20.90
2019-02-12T05:25:12.588Z,21.50
2019-02-12T05:26:12.540Z,22.60
2019-02-12T05:27:12.529Z,21.50
2019-02-12T05:28:12.537Z,23.10
2019-02-12T05:29:12.496Z,22.80
2019-02-12T05:30:12.487Z,24.00
2019-02-12T05:31:12.580Z,26.10
2019-02-12T05:32:12.482Z,32.60
2019-02-12T05:33:12.491Z,33.80
2019-02-12T05:34:12.445Z,31.40
2019-02-12T05:35:12.447Z,35.10
2019-02-12T05:36:12.441Z,35.80
2019-02-12T05:37:12.410Z,33.00
2019-02-12T05:38:12.443Z,33.50
2019-02-12T05:39:12.412Z,31.10
2019-02-12T05:40:12.404Z,28.30
2019-02-12T05:41:12.398Z,29.70
2019-02-12T05:42:12.351Z,26.40
2019-02-12T05:43:12.418Z,27.20
2019-02-12T05:44:12.333Z,29.00
2019-02-12T05:45:12.351Z,27.90
2019-02-12T05:46:12.320Z,30.10
2019-02-12T05:47:12.330Z,31.70
2019-02-12T05:48:12.311Z,30.60
2019-02-12T05:49:12.288Z,31.10
2019-02-12T05:50:12.271Z,28.10
2019-02-12T05:51:12.252Z,30.80
2019-02-12T05:52:12.306Z,28.40
2019-02-12T05:53:12.282Z,28.40
2019-02-12T05:54:12.219Z,29.80
2019-02-12T05:55:12.210Z,28.00
2019-02-12T05:56:12.242Z,29.10
2019-02-12T05:57:12.185Z,27.20
2019-02-12T05:58:12.238Z,24.90
2019-02-12T05:59:12.168Z,26.10
2019-02-12T06:00:12.170Z,26.20
2019-02-12T06:01:12.177Z,29.20
2019-02-12T06:02:12.137Z,25.40
2019-02-12T06:03:12.143Z,25.60
2019-02-12T06:04:12.158Z,25.30
2019-02-12T06:05:12.115Z,26.30
2019-02-12T06:06:12.120Z,27.80
2019-02-12T06:07:12.164Z,28.90
2019-02-12T06:08:12.096Z,30.00
2019-02-12T06:09:12.060Z,28.40
2019-02-12T06:10:12.084Z,26.10
2019-02-12T06:11:12.060Z,26.80
2019-02-12T06:12:12.091Z,28.80
2019-02-12T06:13:12.040Z,28.50
2019-02-12T06:14:11.997Z,29.70
2019-02-12T06:15:11.993Z,29.20
2019-02-12T06:16:11.986Z,28.00
2019-02-12T06:17:11.994Z,30.50
2019-02-12T06:18:11.960Z,32.00
2019-02-12T06:19:11.985Z,30.30
2019-02-12T06:20:11.934Z,28.90
2019-02-12T06:21:11.919Z,29.70
2019-02-12T06:22:11.935Z,28.30
2019-02-12T06:23:11.918Z,27.00
2019-02-12T06:24:11.891Z,26.50
2019-02-12T06:25:11.900Z,28.00
2019-02-12T06:26:11.905Z,28.70
2019-02-12T06:27:11.860Z,29.50
2019-02-12T06:28:11.878Z,29.30
2019-02-12T06:29:11.844Z,27.90
2019-02-12T06:30:11.851Z,29.00
2019-02-12T06:31:11.811Z,29.00
2019-02-12T06:32:11.797Z,28.80
2019-02-12T06:33:11.794Z,28.20
2019-02-12T06:34:11.772Z,26.70
2019-02-12T06:35:11.819Z,26.70
2019-02-12T06:36:11.751Z,25.50
2019-02-12T06:37:11.740Z,25.60
2019-02-12T06:38:11.734Z,27.10
2019-02-12T06:39:11.742Z,27.20
2019-02-12T06:40:11.748Z,26.30
2019-02-12T06:41:11.696Z,27.00
2019-02-12T06:42:11.705Z,27.70
2019-02-12T06:43:11.676Z,27.50
2019-02-12T06:44:11.672Z,25.70
2019-02-12T06:45:11.690Z,27.80
2019-02-12T06:46:11.642Z,27.80
2019-02-12T06:47:11.655Z,28.40
2019-02-12T06:48:11.627Z,28.50
2019-02-12T06:49:11.606Z,28.40
2019-02-12T06:50:11.598Z,28.60
2019-02-12T06:51:11.589Z,28.00
2019-02-12T06:52:11.607Z,27.50
2019-02-12T06:53:12.806Z,29.40
2019-02-12T06:54:11.559Z,31.20
2019-02-12T06:55:11.606Z,30.30
2019-02-12T06:56:11.528Z,28.80
2019-02-12T06:57:11.555Z,30.20
2019-02-12T06:58:11.595Z,29.00
2019-02-12T06:59:11.499Z,31.90
2019-02-12T07:00:11.487Z,30.50
2019-02-12T07:01:11.484Z,27.00
2019-02-12T07:02:11.515Z,28.10
2019-02-12T07:03:11.457Z,29.70
2019-02-12T07:04:11.461Z,29.20
2019-02-12T07:05:11.427Z,29.40
2019-02-12T07:06:11.458Z,29.40
2019-02-12T07:07:11.432Z,28.70
2019-02-12T07:08:11.397Z,28.50
2019-02-12T07:09:11.428Z,26.30
2019-02-12T07:10:11.377Z,27.60
2019-02-12T07:11:11.384Z,31.40
2019-02-12T07:12:11.361Z,29.80
2019-02-12T07:13:11.356Z,30.20
2019-02-12T07:14:11.373Z,31.10
2019-02-12T07:15:11.330Z,29.70
2019-02-12T07:16:11.362Z,29.30
2019-02-12T07:17:11.297Z,29.20
2019-02-12T07:18:11.348Z,29.20
2019-02-12T07:19:11.274Z,30.50
2019-02-12T07:20:11.261Z,30.80
2019-02-12T07:21:11.301Z,31.00
2019-02-12T07:22:11.267Z,32.30
2019-02-12T07:23:11.246Z,27.60
2019-02-12T07:24:11.223Z,27.00
2019-02-12T07:25:11.213Z,29.60
2019-02-12T07:26:11.234Z,28.00
2019-02-12T07:27:11.185Z,27.90
2019-02-12T07:28:11.175Z,28.20
2019-02-12T07:29:11.189Z,31.20
2019-02-12T07:30:11.164Z,30.90
2019-02-12T07:31:11.145Z,33.10
2019-02-12T07:32:11.130Z,31.90
2019-02-12T07:33:13.272Z,30.60
2019-02-12T07:34:11.808Z,32.40
2019-02-12T07:35:11.092Z,32.80
2019-02-12T07:36:11.085Z,33.70
2019-02-12T07:37:11.095Z,35.30
2019-02-12T07:38:11.069Z,32.90
2019-02-12T07:39:11.162Z,32.60
2019-02-12T07:40:11.040Z,32.80
2019-02-12T07:41:19.586Z,32.20
2019-02-12T07:42:12.050Z,33.60
2019-02-12T07:43:11.038Z,31.70
2019-02-12T07:44:11.003Z,33.80
2019-02-12T07:45:11.023Z,32.30
2019-02-12T07:46:10.974Z,34.10
2019-02-12T07:47:10.959Z,32.30
2019-02-12T07:48:11.041Z,32.50
2019-02-12T07:49:10.955Z,32.40
2019-02-12T07:50:10.933Z,32.70
2019-02-12T07:51:10.930Z,32.70
2019-02-12T07:52:10.932Z,33.40
2019-02-12T07:53:10.902Z,31.20
2019-02-12T07:54:10.905Z,32.60
2019-02-12T07:55:10.873Z,34.00
2019-02-12T07:56:10.899Z,32.80
2019-02-12T07:57:10.849Z,34.60
2019-02-12T07:58:10.862Z,34.00
2019-02-12T07:59:10.873Z,34.40
2019-02-12T08:00:10.865Z,31.60
2019-02-12T08:01:10.832Z,31.50
2019-02-12T08:02:10.807Z,32.40
2019-02-12T08:03:10.819Z,29.90
2019-02-12T08:04:10.779Z,33.70
2019-02-12T08:05:10.829Z,31.40
2019-02-12T08:06:10.762Z,33.80
2019-02-12T08:07:10.738Z,33.00
2019-02-12T08:08:10.760Z,32.30
2019-02-12T08:09:10.721Z,32.90
2019-02-12T08:10:10.737Z,35.00
2019-02-12T08:11:10.823Z,33.20
2019-02-12T08:12:10.749Z,30.70
2019-02-12T08:13:10.686Z,31.60
2019-02-12T08:14:10.690Z,34.90
2019-02-12T08:15:10.655Z,33.80
2019-02-12T08:16:10.661Z,34.30
2019-02-12T08:17:10.631Z,32.30
2019-02-12T08:18:10.629Z,31.40
2019-02-12T08:19:10.632Z,34.20
2019-02-12T08:20:10.616Z,33.60
2019-02-12T08:21:10.590Z,32.60
2019-02-12T08:22:10.594Z,34.50
2019-02-12T08:23:10.575Z,33.40
2019-02-12T08:24:10.555Z,33.10
2019-02-12T08:25:10.616Z,33.30
2019-02-12T08:26:10.552Z,32.80
2019-02-12T08:27:10.515Z,35.20
2019-02-12T08:28:10.513Z,33.90
2019-02-12T08:29:10.498Z,33.30
2019-02-12T08:30:10.511Z,34.30
2019-02-12T08:31:10.540Z,35.30
2019-02-12T08:32:10.507Z,32.90
2019-02-12T08:33:10.504Z,34.00
2019-02-12T08:34:10.548Z,36.10
2019-02-12T08:35:10.537Z,35.90
2019-02-12T08:36:10.418Z,34.60
2019-02-12T08:37:10.403Z,33.90
2019-02-12T08:38:10.440Z,34.20
2019-02-12T08:39:10.416Z,35.70
2019-02-12T08:40:10.375Z,33.70
2019-02-12T08:41:10.371Z,35.70
2019-02-12T08:42:10.387Z,37.20
2019-02-12T08:43:10.343Z,35.20
2019-02-12T08:44:10.329Z,31.80
2019-02-12T08:45:10.396Z,31.60
2019-02-12T08:46:10.306Z,30.20
2019-02-12T08:47:10.319Z,32.40
2019-02-12T08:48:10.383Z,30.20
2019-02-12T08:49:10.285Z,29.70
2019-02-12T08:50:10.283Z,32.90
2019-02-12T08:51:10.252Z,34.10
2019-02-12T08:52:10.271Z,32.00
2019-02-12T08:53:10.232Z,30.30
2019-02-12T08:54:10.235Z,30.00
2019-02-12T08:55:10.206Z,27.90
2019-02-12T08:56:10.235Z,32.90
2019-02-12T08:57:10.216Z,29.90
2019-02-12T08:58:10.199Z,30.10
2019-02-12T08:59:10.168Z,31.90
2019-02-12T09:00:10.238Z,28.40
2019-02-12T09:01:10.146Z,27.60
2019-02-12T09:02:10.133Z,27.60
2019-02-12T09:03:10.124Z,29.20
2019-02-12T09:04:10.132Z,27.40
2019-02-12T09:05:10.098Z,28.70
2019-02-12T09:06:10.091Z,28.40
2019-02-12T09:07:10.075Z,27.20
2019-02-12T09:08:10.068Z,29.20
2019-02-12T09:09:10.095Z,29.40
2019-02-12T09:10:10.074Z,28.20
2019-02-12T09:11:10.055Z,30.50
2019-02-12T09:12:10.028Z,28.20
2019-02-12T09:13:10.042Z,26.80
2019-02-12T09:14:10.001Z,26.80
2019-02-12T09:15:09.993Z,27.30
2019-02-12T09:16:09.985Z,28.60
2019-02-12T09:17:09.969Z,27.40
2019-02-12T09:18:09.991Z,28.10
2019-02-12T09:19:09.976Z,27.30
2019-02-12T09:20:09.940Z,27.50
2019-02-12T09:21:09.939Z,28.00
2019-02-12T09:22:09.945Z,28.50
2019-02-12T09:23:09.906Z,26.20
2019-02-12T09:24:09.895Z,27.40
2019-02-12T09:25:09.884Z,25.30
2019-02-12T09:26:09.895Z,29.50
2019-02-12T09:27:09.911Z,28.50
2019-02-12T09:28:09.873Z,27.10
2019-02-12T09:29:09.840Z,27.90
2019-02-12T09:30:09.828Z,27.70
2019-02-12T09:31:09.826Z,26.60
2019-02-12T09:32:09.832Z,24.50
2019-02-12T09:33:09.829Z,27.20
2019-02-12T09:34:09.798Z,26.40
2019-02-12T09:35:09.785Z,24.90
2019-02-12T09:36:09.769Z,25.20
2019-02-12T09:37:09.754Z,26.20
2019-02-12T09:38:09.862Z,26.00
2019-02-12T09:39:09.735Z,25.60
2019-02-12T09:40:18.635Z,26.80
2019-02-12T09:41:10.764Z,27.30
2019-02-12T09:42:09.698Z,27.30
2019-02-12T09:43:09.694Z,28.70
2019-02-12T09:44:09.685Z,26.60
2019-02-12T09:45:09.691Z,25.00
2019-02-12T09:46:09.684Z,26.20
2019-02-12T09:47:09.677Z,26.50
2019-02-12T09:48:09.640Z,24.90
2019-02-12T09:49:09.691Z,24.90
2019-02-12T09:50:09.645Z,25.00
2019-02-12T09:51:09.627Z,26.20
2019-02-12T09:52:09.606Z,25.80
2019-02-12T09:53:09.605Z,24.80
2019-02-12T09:54:09.680Z,22.70
2019-02-12T09:55:09.594Z,24.80
2019-02-12T09:56:09.585Z,25.40
2019-02-12T09:57:09.614Z,24.90
2019-02-12T09:58:09.556Z,27.20
2019-02-12T09:59:09.527Z,24.70
2019-02-12T10:00:09.535Z,25.60
2019-02-12T10:01:10.108Z,24.30
2019-02-12T10:02:09.494Z,25.90
2019-02-12T10:03:09.484Z,23.80
2019-02-12T10:04:09.506Z,23.60
2019-02-12T10:05:09.459Z,25.40
2019-02-12T10:06:09.525Z,24.00
2019-02-12T10:07:09.447Z,25.70
2019-02-12T10:08:09.433Z,26.20
2019-02-12T10:09:09.418Z,24.50
2019-02-12T10:10:09.405Z,24.90
2019-02-12T10:11:09.428Z,26.20
2019-02-12T10:12:09.396Z,25.80
2019-02-12T10:13:09.370Z,25.70
2019-02-12T10:14:09.387Z,26.30
2019-02-12T10:15:09.354Z,25.00
2019-02-12T10:16:09.366Z,25.20
2019-02-12T10:17:09.332Z,25.90
2019-02-12T10:18:09.320Z,25.10
2019-02-12T10:19:09.337Z,25.30
2019-02-12T10:20:09.300Z,22.90
2019-02-12T10:21:09.323Z,24.90
2019-02-12T10:22:09.309Z,26.00
2019-02-12T10:23:09.277Z,24.20
2019-02-12T10:24:18.994Z,27.00
2019-02-12T10:25:10.260Z,26.20
2019-02-12T10:26:09.240Z,26.10
2019-02-12T10:27:09.273Z,25.90
2019-02-12T10:28:09.220Z,24.40
2019-02-12T10:29:09.210Z,26.50
2019-02-12T10:30:09.197Z,25.50
2019-02-12T10:31:09.190Z,26.50
2019-02-12T10:32:09.209Z,27.60
2019-02-12T10:33:09.179Z,25.50
2019-02-12T10:34:09.197Z,25.50
2019-02-12T10:35:09.150Z,26.50
2019-02-12T10:36:09.145Z,24.20
2019-02-12T10:37:09.150Z,26.30
2019-02-12T10:39:09.119Z,27.30
2019-02-12T10:40:09.153Z,26.20
2019-02-12T10:41:09.101Z,26.30
2019-02-12T10:42:09.073Z,26.20
2019-02-12T10:43:09.079Z,26.20
2019-02-12T10:44:09.088Z,24.90
2019-02-12T10:45:09.068Z,24.80
2019-02-12T10:46:09.088Z,25.30
2019-02-12T10:47:09.032Z,25.60
2019-02-12T10:48:09.013Z,24.70
2019-02-12T10:49:09.065Z,25.50
2019-02-12T10:50:09.075Z,24.30
2019-02-12T10:51:09.014Z,25.80
2019-02-12T10:52:08.962Z,24.70
2019-02-12T10:53:09.064Z,23.30
2019-02-12T10:54:08.936Z,23.70
2019-02-12T10:55:08.940Z,23.20
2019-02-12T10:56:08.946Z,23.20
2019-02-12T10:57:08.961Z,23.00
2019-02-12T10:58:08.904Z,23.30
2019-02-12T10:59:08.889Z,22.40
2019-02-12T11:00:08.872Z,22.90
2019-02-12T11:01:08.907Z,22.90
2019-02-12T11:02:08.849Z,21.00
2019-02-12T11:03:08.838Z,21.70
2019-02-12T11:04:08.823Z,22.20
2019-02-12T11:05:08.814Z,21.20
2019-02-12T11:06:08.846Z,19.80
2019-02-12T11:07:08.789Z,21.80
2019-02-12T11:08:08.776Z,21.30
2019-02-12T11:09:08.766Z,20.10
2019-02-12T11:10:08.761Z,21.20
2019-02-12T11:11:08.797Z,21.90
2019-02-12T11:12:08.739Z,21.40
2019-02-12T11:13:08.760Z,20.80
2019-02-12T11:14:08.707Z,19.20
2019-02-12T11:15:08.721Z,20.90
2019-02-12T11:16:08.698Z,20.40
2019-02-12T11:17:08.675Z,19.40
2019-02-12T11:18:08.663Z,18.70
2019-02-12T11:19:08.669Z,17.40
2019-02-12T11:20:08.669Z,19.30
2019-02-12T11:21:12.055Z,19.90
2019-02-12T11:22:08.623Z,18.50
2019-02-12T11:23:08.627Z,17.60
2019-02-12T11:24:08.635Z,18.40
2019-02-12T11:25:08.593Z,18.30
2019-02-12T11:26:08.594Z,16.60
2019-02-12T11:27:08.563Z,16.00
2019-02-12T11:28:08.562Z,16.70
2019-02-12T11:29:08.557Z,17.20
2019-02-12T11:30:08.522Z,17.20
2019-02-12T11:31:08.546Z,16.60
2019-02-12T11:32:08.505Z,16.30
2019-02-12T11:33:08.485Z,17.30
2019-02-12T11:34:08.485Z,16.20
2019-02-12T11:35:08.512Z,15.90
2019-02-12T11:36:08.524Z,16.20
2019-02-12T11:37:08.442Z,17.10
2019-02-12T11:38:08.435Z,15.20
2019-02-12T11:39:08.421Z,15.50
2019-02-12T11:40:08.436Z,15.70
2019-02-12T11:41:08.447Z,14.90
2019-02-12T11:42:08.388Z,16.20
2019-02-12T11:43:08.405Z,15.40
2019-02-12T11:44:08.371Z,16.50
2019-02-12T11:45:08.351Z,15.10
2019-02-12T11:46:08.380Z,15.00
2019-02-12T11:47:08.354Z,16.10
2019-02-12T11:48:08.322Z,15.90
2019-02-12T11:49:08.312Z,15.70
2019-02-12T11:50:08.302Z,16.60
2019-02-12T11:51:08.310Z,16.50
2019-02-12T11:52:08.298Z,15.10
2019-02-12T11:53:08.261Z,15.90
2019-02-12T11:54:08.247Z,16.40
2019-02-12T11:55:08.242Z,15.60
2019-02-12T11:56:08.341Z,15.80
2019-02-12T11:57:08.210Z,15.00
2019-02-12T11:58:08.199Z,15.40
2019-02-12T11:59:08.191Z,14.50
2019-02-12T12:00:08.176Z,15.00
2019-02-12T12:01:08.188Z,15.50
2019-02-12T12:02:08.176Z,15.50
2019-02-12T12:03:08.162Z,15.00
2019-02-12T12:04:08.178Z,15.20
2019-02-12T12:05:08.116Z,14.40
2019-02-12T12:06:08.104Z,14.10
2019-02-12T12:07:08.093Z,15.70
2019-02-12T12:08:08.114Z,14.20
2019-02-12T12:09:08.068Z,14.20
2019-02-12T12:10:08.076Z,13.80
2019-02-12T12:11:08.074Z,14.10
2019-02-12T12:12:08.035Z,14.50
2019-02-12T12:13:08.064Z,13.80
2019-02-12T12:14:08.010Z,14.50
2019-02-12T12:15:08.006Z,13.80
2019-02-12T12:16:08.022Z,13.50
2019-02-12T12:17:07.972Z,13.80
2019-02-12T12:18:07.955Z,13.90
2019-02-12T12:19:07.950Z,13.20
2019-02-12T12:20:07.952Z,12.70
2019-02-12T12:21:07.944Z,12.90
2019-02-12T12:22:07.934Z,13.10
2019-02-12T12:23:07.899Z,13.20
2019-02-12T12:24:07.956Z,13.10
2019-02-12T12:25:07.873Z,13.60
2019-02-12T12:26:07.862Z,13.40
2019-02-12T12:27:07.876Z,13.00
2019-02-12T12:28:07.840Z,13.60
2019-02-12T12:29:07.846Z,13.00
2019-02-12T12:30:07.841Z,12.70
2019-02-12T12:31:07.798Z,12.10
2019-02-12T12:32:07.790Z,13.00
2019-02-12T12:33:07.825Z,12.50
2019-02-12T12:34:07.758Z,11.80
2019-02-12T12:35:07.791Z,12.10
2019-02-12T12:36:07.764Z,11.40
2019-02-12T12:37:07.746Z,12.20
2019-02-12T12:38:07.712Z,11.70
2019-02-12T12:39:07.697Z,11.70
2019-02-12T12:40:07.721Z,11.80
2019-02-12T12:41:07.675Z,12.40
2019-02-12T12:42:07.660Z,11.20
2019-02-12T12:43:07.653Z,11.90
2019-02-12T12:44:07.647Z,11.10
2019-02-12T12:45:07.711Z,10.70
2019-02-12T12:46:07.616Z,11.10
2019-02-12T12:47:07.674Z,11.30
2019-02-12T12:48:07.600Z,11.20
2019-02-12T12:49:07.592Z,11.50
2019-02-12T12:50:07.590Z,11.20
2019-02-12T12:51:07.571Z,11.20
2019-02-12T12:52:07.537Z,12.40
2019-02-12T12:53:07.534Z,11.30
2019-02-12T12:54:07.523Z,11.70
2019-02-12T12:55:07.533Z,11.40
2019-02-12T12:56:07.505Z,11.80
2019-02-12T12:57:07.509Z,10.90
2019-02-12T12:58:07.548Z,11.00